Portage la Prairie, Canada
Current Conditions -  °F | °C
As of 1:00 AM on Sunday 23 Nov 2014 (Local Time) from CYWG Reporting Station
Overcast Overcast  
Wind Chill: 25°   Ceiling: 7600
Heat Index: 34°   Visibility: 15mi
Dew Point: 30°   Wind: 12mph
Humidity: 87%   Direction: 160°SSE
Pressure: 29.32"   Gusts: NA
Location:  49.97°N, 98.29°W
Report Text: CYWG 230700Z 16010KT 15SM BKN076 OVC150 01/M01 A2932 RMK AC5AC3 SLP940
Loading
Personal Weather Stations






























Interactive Weather Map New forecast layout! Learn more

10-Day Weather Forecast

Advertisements
Track Severe Weather on mobile